Time,TemperatureF,DewpointF,PressureIn,WindDirection,WindDirectionDegrees,WindSpeedMPH,WindSpeedGustMPH,Humidity,HourlyPrecipIn,Conditions,Clouds,dailyrainin,SoftwareType,DateUTC
2013-08-28 13:24:00,84.0,71.0,-100.00,WNW,300,5.0,12.0,65,0.00,,,-99.99,,2013-08-28 17:24:00,
2013-08-28 13:52:00,86.0,73.0,-100.00,WNW,295,4.0,14.0,65,0.00,,,-99.99,,2013-08-28 17:52:00,
2013-08-28 14:22:00,84.0,72.0,-100.00,WNW,285,6.0,11.0,66,0.00,,,-99.99,,2013-08-28 18:22:00,
2013-08-28 14:52:00,86.0,73.0,-100.00,WNW,295,4.0,12.0,66,0.00,,,-99.99,,2013-08-28 18:52:00,
2013-08-28 15:12:00,86.0,72.0,-100.00,NW,315,6.0,11.0,64,0.00,,,-99.99,,2013-08-28 19:12:00,
2013-08-28 15:22:00,85.0,73.0,-100.00,NW,310,6.0,10.0,69,0.00,,,-99.99,,2013-08-28 19:22:00,
2013-08-28 15:42:00,84.0,73.0,-100.00,NW,325,7.0,9.0,68,0.00,,,-99.99,,2013-08-28 19:42:00,
2013-08-28 15:52:00,83.0,73.0,-100.00,NW,320,9.0,12.0,70,0.00,,,-99.99,,2013-08-28 19:52:00,
2013-08-28 16:23:00,85.0,74.0,-100.00,NW,325,9.0,12.0,69,0.00,,,-99.99,,2013-08-28 20:23:00,
2013-08-28 16:52:00,85.0,74.0,-100.00,NW,310,6.0,10.0,68,0.00,,,-99.99,,2013-08-28 20:52:00,
2013-08-28 17:22:00,85.0,74.0,-100.00,NW,320,8.0,12.0,67,0.00,,,-99.99,,2013-08-28 21:22:00,
2013-08-28 17:44:00,87.0,74.0,-100.00,NW,320,9.0,14.0,64,0.00,,,-99.99,,2013-08-28 21:44:00,
2013-08-28 17:57:00,85.0,73.0,-100.00,NW,305,6.0,12.0,68,0.00,,,-99.99,,2013-08-28 21:57:00,
2013-08-28 18:25:00,86.0,73.0,-100.00,West,275,4.0,12.0,65,0.00,,,-99.99,,2013-08-28 22:25:00,
2013-08-28 18:43:00,86.0,73.0,-100.00,NW,315,11.0,16.0,64,0.00,,,-99.99,,2013-08-28 22:43:00,
2013-08-28 18:54:00,84.0,72.0,-100.00,NW,325,6.0,11.0,67,0.00,,,-99.99,,2013-08-28 22:54:00,
2013-08-28 19:22:00,84.0,73.0,-100.00,North,355,7.0,11.0,69,0.00,,,-99.99,,2013-08-28 23:22:00,
2013-08-28 19:53:00,82.0,73.0,-100.00,NNE,30,2.0,10.0,75,0.00,,,-99.99,,2013-08-28 23:53:00,
2013-08-28 21:22:00,78.0,73.0,-100.00,NE,35,3.0,6.0,85,0.00,,,-99.99,,2013-08-29 01:22:00,
2013-08-28 21:52:00,77.0,73.0,-100.00,ENE,60,1.0,4.0,87,0.00,,,-99.99,,2013-08-29 01:52:00,
2013-08-28 22:03:00,77.0,73.0,-100.00,ENE,60,1.0,4.0,87,0.00,,,-99.99,,2013-08-29 02:03:00,
2013-08-28 22:22:00,76.0,73.0,-100.00,ENE,75,0.0,2.0,89,0.00,,,-99.99,,2013-08-29 02:22:00,
2013-08-28 23:23:00,74.0,72.0,-100.00,North,5,1.0,2.0,92,0.00,,,-99.99,,2013-08-29 03:23:00,
2013-08-28 23:57:00,75.0,72.0,-100.00,NE,55,1.0,2.0,91,0.00,,,-99.99,,2013-08-29 03:57:00,